Time;durP1;ratioP1;P1;durP2;ratioP2;P2;SDS_P1;SDS_P2;PMS_P1;PMS_P2;Temp;Humidity;BMP_temperature;BMP_pressure;BME280_temperature;BME280_humidity;BME280_pressure;Samples;Min_cycle;Max_cycle;Signal;HPM_P1;HPM_P2
2022/08/01 00:02:10;;;;;;;16.27;14.80;;;;;;;20.17;84.35;100881.94;5060747;28;20193;-64
2022/08/01 00:04:36;;;;;;;15.37;13.97;;;;;;;20.21;84.21;100882.69;5060882;28;20198;-64
2022/08/01 00:07:01;;;;;;;16.70;15.00;;;;;;;20.32;84.14;100877.09;5060735;28;20205;-65
2022/08/01 00:09:26;;;;;;;14.90;13.43;;;;;;;20.25;84.22;100875.53;5060528;28;20187;-65
2022/08/01 00:11:52;;;;;;;14.63;12.97;;;;;;;20.40;84.19;100884.81;5061069;28;20515;-64
2022/08/01 00:14:17;;;;;;;14.57;13.17;;;;;;;20.37;84.33;100880.47;5060358;28;20169;-65
2022/08/01 00:16:43;;;;;;;15.20;13.80;;;;;;;20.24;84.37;100871.16;5060402;28;20456;-65
2022/08/01 00:19:08;;;;;;;14.47;12.97;;;;;;;20.46;83.83;100882.88;5060945;28;20176;-64
2022/08/01 00:21:33;;;;;;;14.00;12.77;;;;;;;20.28;84.39;100876.34;5060231;28;20220;-64
2022/08/01 00:23:59;;;;;;;14.50;13.10;;;;;;;20.14;84.57;100873.19;5060392;28;20224;-65
2022/08/01 00:26:24;;;;;;;14.47;13.17;;;;;;;20.38;83.93;100876.94;5060819;28;20166;-65
2022/08/01 00:28:49;;;;;;;13.90;12.50;;;;;;;20.17;84.03;100876.63;5060249;28;20181;-65
2022/08/01 00:31:15;;;;;;;15.00;13.60;;;;;;;20.41;84.61;100876.81;5060133;28;20178;-65
2022/08/01 00:33:40;;;;;;;14.90;13.40;;;;;;;20.31;83.91;100880.63;5060538;28;20539;-64
2022/08/01 00:36:06;;;;;;;14.40;13.10;;;;;;;20.35;84.27;100885.81;5060265;28;20201;-64
2022/08/01 00:38:31;;;;;;;15.40;13.77;;;;;;;20.14;85.41;100884.63;5060077;28;20256;-65
2022/08/01 00:40:57;;;;;;;15.27;13.80;;;;;;;20.23;85.60;100878.25;5060232;28;20583;-65
2022/08/01 00:43:22;;;;;;;15.57;14.07;;;;;;;20.16;85.66;100888.13;5059898;28;20212;-66
2022/08/01 00:45:48;;;;;;;14.70;13.20;;;;;;;20.31;85.08;100878.88;5059762;28;20185;-65
2022/08/01 00:48:13;;;;;;;13.23;12.03;;;;;;;20.10;84.55;100875.06;5060442;28;20535;-65
2022/08/01 00:50:38;;;;;;;11.30;10.20;;;;;;;20.19;84.61;100876.59;5059996;28;20256;-65
2022/08/01 00:53:04;;;;;;;11.00;9.90;;;;;;;20.21;84.06;100872.09;5059684;28;20229;-65
2022/08/01 00:55:31;;;;;;;12.10;10.90;;;;;;;20.02;84.17;100877.03;5059439;28;20547;-64
2022/08/01 00:57:56;;;;;;;11.70;10.60;;;;;;;20.24;84.84;100876.44;5059699;28;20481;-64
2022/08/01 01:00:22;;;;;;;12.43;11.23;;;;;;;20.10;85.23;100883.00;5059732;28;20423;-64
2022/08/01 01:02:47;;;;;;;13.43;12.00;;;;;;;20.17;84.89;100883.69;5060686;28;20220;-67
2022/08/01 01:05:13;;;;;;;12.40;11.20;;;;;;;20.15;84.60;100878.44;5059387;28;20244;-65
2022/08/01 01:07:42;;;;;;;12.70;11.40;;;;;;;20.05;85.37;100881.38;5059538;28;20253;-65
2022/08/01 01:10:32;;;;;;;12.53;11.23;;;;;;;20.19;85.04;100876.59;5059792;28;20196;-66
2022/08/01 01:13:04;;;;;;;13.50;12.20;;;;;;;20.26;83.58;100867.56;5058748;28;20416;-64
2022/08/01 01:15:51;;;;;;;14.00;12.60;;;;;;;20.47;83.82;100876.66;5059647;28;20404;-65
2022/08/01 01:18:23;;;;;;;15.07;12.57;;;;;;;20.31;83.58;100880.63;5058597;28;20652;-65
2022/08/01 01:21:10;;;;;;;14.87;12.17;;;;;;;20.15;84.75;100885.53;5055803;28;20432;-64
2022/08/01 01:24:13;;;;;;;13.73;12.33;;;;;;;19.94;85.25;100885.19;5038843;28;20471;-65
2022/08/01 01:26:53;;;;;;;13.23;11.97;;;;;;;19.83;86.61;100889.91;5039432;28;20405;-65
2022/08/01 01:29:32;;;;;;;13.77;11.90;;;;;;;20.25;85.04;100883.47;5039214;28;20414;-64
2022/08/01 01:32:08;;;;;;;14.90;13.40;;;;;;;20.14;85.75;100879.34;5038449;28;20421;-64
2022/08/01 01:34:37;;;;;;;12.83;11.53;;;;;;;20.14;86.30;100884.63;5039027;28;20512;-65
2022/08/01 01:37:05;;;;;;;13.77;12.30;;;;;;;20.21;85.27;100880.03;5039078;28;20563;-65
2022/08/01 01:39:32;;;;;;;14.00;12.50;;;;;;;20.03;85.84;100881.44;5038489;28;20387;-65
2022/08/01 01:41:58;;;;;;;16.00;13.30;;;;;;;20.06;85.16;100888.44;5038973;28;20440;-66
2022/08/01 01:44:25;;;;;;;13.87;12.57;;;;;;;19.99;86.37;100896.50;5038902;28;20420;-66
2022/08/01 01:46:51;;;;;;;15.33;13.40;;;;;;;19.92;87.29;100894.09;5038158;28;20522;-65
2022/08/01 01:49:20;;;;;;;13.83;12.00;;;;;;;20.09;85.58;100894.47;5038199;28;20732;-66
2022/08/01 01:51:46;;;;;;;14.87;13.40;;;;;;;20.07;86.51;100893.66;5038767;28;20467;-65
2022/08/01 01:54:11;;;;;;;16.57;13.97;;;;;;;19.84;86.82;100897.81;5037739;28;20894;-66
2022/08/01 01:56:48;;;;;;;14.77;13.30;;;;;;;20.15;86.19;100901.41;5037904;28;20194;-65
2022/08/01 01:59:15;;;;;;;15.87;13.60;;;;;;;19.91;86.70;100900.28;5038019;28;20170;-65
2022/08/01 02:01:41;;;;;;;16.40;14.77;;;;;;;19.95;86.99;100901.94;5037743;28;20423;-65
2022/08/01 02:04:07;;;;;;;15.67;12.13;;;;;;;20.17;84.64;100900.47;5038844;28;20862;-65
2022/08/01 02:06:33;;;;;;;14.73;13.27;;;;;;;19.98;85.62;100910.66;5037830;28;20188;-66
2022/08/01 02:08:59;;;;;;;14.43;13.03;;;;;;;19.85;86.38;100898.69;5038341;28;20204;-66
2022/08/01 02:11:24;;;;;;;14.77;13.33;;;;;;;19.87;86.10;100904.78;5038300;28;20480;-65
2022/08/01 02:13:58;;;;;;;14.77;13.37;;;;;;;19.90;86.04;100898.56;5038326;28;20921;-65
2022/08/01 02:16:26;;;;;;;13.83;12.50;;;;;;;20.20;84.67;100899.47;5037798;28;20171;-65
2022/08/01 02:18:51;;;;;;;13.40;12.10;;;;;;;19.71;86.21;100900.78;5038308;28;20417;-65
2022/08/01 02:21:22;;;;;;;12.53;11.43;;;;;;;19.85;86.48;100904.84;5038344;28;20423;-65
2022/08/01 02:23:48;;;;;;;13.90;11.53;;;;;;;19.73;86.11;100905.13;5037843;28;20205;-65
2022/08/01 02:26:15;;;;;;;14.63;13.13;;;;;;;19.84;86.58;100903.09;5037524;28;20806;-65
2022/08/01 02:28:47;;;;;;;14.07;11.73;;;;;;;19.80;86.10;100900.53;5037577;28;20182;-65
2022/08/01 02:31:16;;;;;;;16.77;12.03;;;;;;;20.09;84.69;100907.72;5038640;28;20400;-65
2022/08/01 02:33:45;;;;;;;13.67;12.30;;;;;;;20.03;84.81;100900.81;5037359;28;20659;-66
2022/08/01 02:36:11;;;;;;;13.83;12.30;;;;;;;20.28;83.95;100896.63;5038168;28;20824;-66
2022/08/01 02:38:41;;;;;;;11.33;10.17;;;;;;;20.44;83.26;100905.84;5038517;28;20397;-64
2022/08/01 02:41:12;;;;;;;13.13;11.80;;;;;;;20.22;84.04;100894.16;5037328;28;20224;-66
2022/08/01 02:43:40;;;;;;;13.07;11.43;;;;;;;20.05;84.86;100900.78;5037239;28;20472;-65
2022/08/01 02:46:08;;;;;;;12.60;11.30;;;;;;;20.21;84.56;100905.66;5038063;28;20421;-64
2022/08/01 02:48:35;;;;;;;13.60;11.77;;;;;;;19.93;84.21;100906.41;5020800;28;20448;-65
2022/08/01 02:51:01;;;;;;;14.10;12.27;;;;;;;20.06;84.64;100906.94;5037596;28;20795;-66
2022/08/01 02:53:27;;;;;;;12.87;11.57;;;;;;;20.09;85.43;100907.72;5037869;28;20551;-65
2022/08/01 02:55:54;;;;;;;13.57;12.27;;;;;;;20.12;84.63;100912.94;5037020;28;20692;-65
2022/08/01 02:58:20;;;;;;;15.03;13.43;;;;;;;19.99;85.35;100906.25;5038021;28;20742;-65
2022/08/01 03:00:46;;;;;;;13.60;11.87;;;;;;;19.44;86.97;100916.44;5037987;28;20447;-65
2022/08/01 03:03:13;;;;;;;13.33;12.00;;;;;;;19.83;86.70;100916.38;5037881;28;20460;-67
2022/08/01 03:05:39;;;;;;;12.57;11.27;;;;;;;20.14;85.11;100919.06;5042223;28;20401;-65
2022/08/01 03:08:06;;;;;;;12.13;10.93;;;;;;;19.69;86.04;100925.50;5041276;28;20416;-66
2022/08/01 03:10:32;;;;;;;11.93;10.50;;;;;;;19.90;85.44;100906.50;5042131;28;20455;-65
2022/08/01 03:13:00;;;;;;;10.97;9.93;;;;;;;19.85;85.94;100918.06;5041432;28;20409;-66
2022/08/01 03:15:26;;;;;;;12.23;10.40;;;;;;;19.83;85.70;100917.22;5041689;28;20412;-67
2022/08/01 03:17:52;;;;;;;11.83;10.73;;;;;;;19.85;86.34;100919.84;5041934;28;20870;-64
2022/08/01 03:20:19;;;;;;;12.90;11.60;;;;;;;19.77;86.10;100921.75;5041882;28;20401;-66
2022/08/01 03:22:46;;;;;;;11.97;10.87;;;;;;;19.85;85.93;100925.16;5041649;28;20388;-66
2022/08/01 03:25:13;;;;;;;12.23;11.13;;;;;;;19.86;85.75;100916.28;5041568;28;20462;-66
2022/08/01 03:27:40;;;;;;;12.00;10.90;;;;;;;19.57;87.24;100931.09;5042161;28;20392;-68
2022/08/01 03:30:06;;;;;;;12.80;11.37;;;;;;;20.02;86.46;100929.97;5040878;28;20864;-65
2022/08/01 03:32:32;;;;;;;11.80;10.60;;;;;;;19.97;85.87;100927.47;5041392;28;20459;-67
2022/08/01 03:34:57;;;;;;;12.37;11.13;;;;;;;19.65;87.13;100929.13;5041787;28;20401;-67
2022/08/01 03:37:29;;;;;;;11.60;10.40;;;;;;;19.69;85.69;100932.56;5041411;28;20170;-67
2022/08/01 03:40:02;;;;;;;11.20;10.20;;;;;;;19.90;85.38;100935.59;5041462;28;20204;-66
2022/08/01 03:42:32;;;;;;;12.07;10.80;;;;;;;19.97;84.95;100935.41;5040619;28;20391;-65
2022/08/01 03:45:02;;;;;;;9.63;8.83;;;;;;;20.30;83.17;100924.78;5040345;28;20464;-66
2022/08/01 03:47:31;;;;;;;11.80;10.60;;;;;;;19.87;86.31;100927.75;5041356;28;20673;-66
2022/08/01 03:49:58;;;;;;;10.30;9.23;;;;;;;20.27;84.54;100935.47;5041311;28;20672;-66
2022/08/01 03:52:24;;;;;;;10.57;9.60;;;;;;;20.29;83.52;100936.28;5041706;28;20682;-64
2022/08/01 03:54:51;;;;;;;10.53;9.43;;;;;;;19.84;84.24;100940.13;5040715;28;20885;-65
2022/08/01 03:57:17;;;;;;;10.43;9.37;;;;;;;20.27;83.79;100934.59;5040235;28;20388;-66
2022/08/01 03:59:43;;;;;;;10.17;9.10;;;;;;;19.71;85.13;100946.59;5040610;28;20405;-66
2022/08/01 04:02:09;;;;;;;9.67;8.67;;;;;;;19.83;85.09;100948.97;5040105;28;20409;-65
2022/08/01 04:04:34;;;;;;;10.90;9.90;;;;;;;19.87;84.85;100949.75;5040752;28;20914;-65
2022/08/01 04:07:04;;;;;;;10.83;9.23;;;;;;;19.92;85.46;100952.31;5040590;28;20170;-65
2022/08/01 04:09:32;;;;;;;9.60;8.67;;;;;;;20.00;85.33;100963.56;5040801;28;20234;-65
2022/08/01 04:12:00;;;;;;;11.40;7.90;;;;;;;20.06;84.31;100958.09;5040752;28;20509;-66
2022/08/01 04:14:27;;;;;;;8.40;7.60;;;;;;;20.07;84.21;100958.97;5039367;28;20424;-65
2022/08/01 04:16:53;;;;;;;13.47;7.43;;;;;;;20.22;83.96;100957.69;5040685;28;20420;-65
2022/08/01 04:19:18;;;;;;;7.73;6.70;;;;;;;19.73;85.06;100962.44;5040934;28;20851;-67
2022/08/01 04:21:44;;;;;;;9.60;6.73;;;;;;;20.01;84.14;100954.69;5040635;28;20206;-66
2022/08/01 04:24:13;;;;;;;6.80;6.10;;;;;;;19.84;84.61;100963.94;5041373;28;20435;-66
2022/08/01 04:26:41;;;;;;;6.90;6.20;;;;;;;19.80;85.43;100969.31;5041263;28;20162;-65
2022/08/01 04:29:08;;;;;;;8.57;6.03;;;;;;;19.75;84.73;100971.22;5047883;28;20424;-66
2022/08/01 04:31:35;;;;;;;7.73;5.97;;;;;;;19.75;85.44;100976.50;5045439;28;20470;-65
2022/08/01 04:34:02;;;;;;;7.43;5.90;;;;;;;20.19;83.60;100975.38;5041678;28;20401;-65
2022/08/01 04:36:28;;;;;;;6.73;6.13;;;;;;;19.87;84.63;100985.94;5058889;28;20485;-65
2022/08/01 04:38:56;;;;;;;6.80;6.17;;;;;;;19.99;83.78;100988.28;5047610;28;20472;-66
2022/08/01 04:41:22;;;;;;;6.87;5.70;;;;;;;19.96;84.24;100993.66;5039811;28;20408;-66
2022/08/01 04:43:48;;;;;;;6.10;5.50;;;;;;;19.71;85.52;100988.06;5039303;28;20464;-66
2022/08/01 04:46:14;;;;;;;7.10;5.20;;;;;;;19.82;84.91;100999.28;5040303;28;20756;-64
2022/08/01 04:48:39;;;;;;;6.00;5.00;;;;;;;19.61;85.50;100992.72;5041317;28;20509;-64
2022/08/01 04:51:13;;;;;;;5.00;4.50;;;;;;;19.98;84.75;100999.78;5040102;28;20455;-64
2022/08/01 04:53:38;;;;;;;5.13;4.63;;;;;;;20.24;83.05;100990.28;5039622;28;20280;-65
2022/08/01 04:56:03;;;;;;;5.47;4.80;;;;;;;20.27;82.82;100999.03;5040302;28;20806;-64
2022/08/01 04:58:29;;;;;;;5.40;4.90;;;;;;;20.16;83.08;101004.59;5050778;28;20443;-65
2022/08/01 05:00:54;;;;;;;6.07;5.07;;;;;;;19.90;83.33;101004.38;5059856;28;20177;-66
2022/08/01 05:03:19;;;;;;;5.23;4.80;;;;;;;20.12;83.49;101005.59;5059975;28;20316;-65
2022/08/01 05:05:45;;;;;;;5.60;4.60;;;;;;;20.07;83.83;101009.25;5059545;28;20511;-66
2022/08/01 05:08:10;;;;;;;6.27;5.23;;;;;;;20.24;82.83;100998.22;5050936;28;20185;-66
2022/08/01 05:10:35;;;;;;;5.33;4.83;;;;;;;20.10;83.46;100998.59;5039980;28;20550;-66
2022/08/01 05:13:01;;;;;;;5.73;5.13;;;;;;;20.32;83.03;100996.22;5052382;28;20195;-65
2022/08/01 05:15:26;;;;;;;5.23;4.73;;;;;;;20.43;82.07;101002.13;5059539;28;20170;-66
2022/08/01 05:17:52;;;;;;;5.60;5.03;;;;;;;20.14;82.10;101006.41;5059670;28;20547;-65
2022/08/01 05:20:18;;;;;;;5.70;5.20;;;;;;;19.97;83.28;101005.97;5059336;28;20195;-66
2022/08/01 05:22:43;;;;;;;6.47;5.53;;;;;;;20.16;82.24;101014.28;5049662;28;20232;-65
2022/08/01 05:25:08;;;;;;;7.00;6.30;;;;;;;19.66;84.67;101014.63;5039400;28;20200;-66
2022/08/01 05:27:39;;;;;;;6.80;6.23;;;;;;;20.10;82.30;101015.31;5042406;28;20173;-65
2022/08/01 05:30:06;;;;;;;7.00;6.30;;;;;;;20.14;82.64;101019.63;5059379;28;20506;-65
2022/08/01 05:32:31;;;;;;;7.50;6.90;;;;;;;19.91;82.24;101025.50;5059426;28;20431;-65
2022/08/01 05:34:57;;;;;;;7.90;7.27;;;;;;;20.35;81.04;101030.59;5058960;28;20416;-65
2022/08/01 05:37:22;;;;;;;8.80;8.00;;;;;;;20.23;81.68;101026.47;5056828;28;20173;-65
2022/08/01 05:39:47;;;;;;;9.40;8.50;;;;;;;20.19;81.57;101025.69;5039383;28;20190;-65
2022/08/01 05:42:13;;;;;;;10.77;9.87;;;;;;;20.28;81.04;101029.00;5038898;28;20174;-67
2022/08/01 05:44:38;;;;;;;10.30;9.50;;;;;;;20.49;80.40;101033.72;5052344;28;20249;-65
2022/08/01 05:47:03;;;;;;;10.77;9.77;;;;;;;20.15;80.91;101029.31;5058997;28;20184;-65
2022/08/01 05:49:29;;;;;;;13.60;10.57;;;;;;;20.37;80.35;101028.75;5039976;28;20197;-65
2022/08/01 05:51:54;;;;;;;11.37;10.37;;;;;;;20.35;80.46;101030.59;5042689;28;20536;-65
2022/08/01 05:54:20;;;;;;;11.00;10.10;;;;;;;20.09;80.43;101039.19;5058405;28;20237;-65
2022/08/01 05:56:45;;;;;;;13.17;11.43;;;;;;;20.31;79.63;101042.16;5058772;28;20427;-65
2022/08/01 05:59:10;;;;;;;12.47;11.37;;;;;;;20.26;80.32;101046.72;5043884;28;20194;-65
2022/08/01 06:01:36;;;;;;;12.57;11.17;;;;;;;20.17;80.50;101040.75;5052829;28;20182;-65
2022/08/01 06:04:01;;;;;;;12.80;11.53;;;;;;;20.25;80.95;101043.19;5058373;28;20202;-65
2022/08/01 06:06:26;;;;;;;11.50;10.40;;;;;;;20.38;79.94;101050.81;5057964;28;20177;-65
2022/08/01 06:08:52;;;;;;;12.70;11.50;;;;;;;20.31;79.73;101052.72;5058003;28;20193;-65
2022/08/01 06:11:17;;;;;;;12.00;11.00;;;;;;;20.34;79.52;101048.25;5058489;28;20166;-64
2022/08/01 06:13:42;;;;;;;12.40;11.20;;;;;;;20.42;79.96;101052.47;5058579;28;20249;-64
2022/08/01 06:16:08;;;;;;;11.40;10.30;;;;;;;20.78;78.42;101049.75;5058380;28;20180;-65
2022/08/01 06:18:33;;;;;;;11.73;10.63;;;;;;;21.12;75.50;101051.44;5050660;28;20261;-66
2022/08/01 06:20:58;;;;;;;11.90;10.90;;;;;;;21.43;75.21;101058.47;5038752;28;20504;-65
2022/08/01 06:23:24;;;;;;;12.50;11.40;;;;;;;21.13;76.28;101055.84;5038289;28;20277;-64
2022/08/01 06:25:54;;;;;;;10.23;8.20;;;;;;;20.49;78.96;101056.69;5038196;28;20178;-65
2022/08/01 06:28:20;;;;;;;14.53;9.10;;;;;;;20.66;77.93;101065.06;5039932;28;20555;-65
2022/08/01 06:30:45;;;;;;;9.37;8.23;;;;;;;20.29;77.15;101058.06;5055994;28;20703;-65
2022/08/01 06:33:10;;;;;;;9.07;8.07;;;;;;;20.49;76.57;101072.59;5058082;28;20415;-65
2022/08/01 06:35:36;;;;;;;10.30;8.13;;;;;;;20.57;76.83;101061.81;5058196;28;20169;-65
2022/08/01 06:38:02;;;;;;;9.83;7.80;;;;;;;20.39;76.25;101071.97;5050810;28;20192;-65
2022/08/01 06:40:27;;;;;;;8.30;7.50;;;;;;;20.32;76.43;101076.56;5037482;28;20459;-65
2022/08/01 06:42:53;;;;;;;8.37;7.27;;;;;;;20.02;77.60;101078.16;5038251;28;20424;-65
2022/08/01 06:45:22;;;;;;;11.40;7.80;;;;;;;20.49;76.51;101080.53;5039532;28;20575;-64
2022/08/01 06:47:47;;;;;;;10.63;7.50;;;;;;;20.62;75.61;101086.34;5041960;28;20190;-64
2022/08/01 06:50:14;;;;;;;8.93;7.47;;;;;;;20.31;76.45;101076.56;5038536;28;20459;-64
2022/08/01 06:52:40;;;;;;;9.93;8.60;;;;;;;20.16;77.08;101084.00;5050925;28;20534;-64
2022/08/01 06:55:06;;;;;;;8.80;7.13;;;;;;;20.31;76.10;101082.75;5057694;28;20424;-64
2022/08/01 06:57:32;;;;;;;9.03;7.50;;;;;;;20.64;75.07;101089.84;5044660;28;20674;-65
2022/08/01 06:59:58;;;;;;;7.73;6.60;;;;;;;20.91;74.00;101090.06;5037940;28;20166;-64
2022/08/01 07:02:23;;;;;;;10.13;9.13;;;;;;;21.37;72.65;101086.06;5037314;28;20757;-64
2022/08/01 07:04:48;;;;;;;7.37;6.77;;;;;;;21.62;70.03;101091.53;5038012;28;20567;-65
2022/08/01 07:07:14;;;;;;;10.13;6.13;;;;;;;21.24;71.22;101092.63;5039057;28;20446;-65
2022/08/01 07:09:42;;;;;;;8.30;5.10;;;;;;;20.87;73.05;101094.56;5037889;28;20186;-65
2022/08/01 07:12:08;;;;;;;10.13;6.27;;;;;;;20.72;73.73;101098.50;5038005;28;20162;-66
2022/08/01 07:14:34;;;;;;;8.30;6.10;;;;;;;20.57;74.05;101101.53;5037551;28;20519;-66
2022/08/01 07:16:59;;;;;;;7.87;5.90;;;;;;;20.51;74.36;101108.72;5038967;28;20429;-66
2022/08/01 07:19:25;;;;;;;9.97;6.57;;;;;;;20.46;74.08;101107.97;5037979;28;20167;-65
2022/08/01 07:21:50;;;;;;;14.93;8.00;;;;;;;20.32;74.34;101107.44;5037700;28;20298;-66
2022/08/01 07:24:15;;;;;;;13.13;8.70;;;;;;;20.64;72.41;101117.19;5037529;28;20213;-65
2022/08/01 07:26:42;;;;;;;13.13;10.80;;;;;;;20.52;72.62;101112.22;5039396;28;20197;-67
2022/08/01 07:29:08;;;;;;;14.83;8.80;;;;;;;20.33;73.01;101115.34;5037757;28;20181;-64
2022/08/01 07:31:33;;;;;;;14.03;9.20;;;;;;;20.32;73.39;101118.03;5039979;28;20842;-66
2022/08/01 07:33:58;;;;;;;9.27;8.27;;;;;;;20.60;71.74;101122.63;5037669;28;20453;-64
2022/08/01 07:36:23;;;;;;;13.87;8.57;;;;;;;20.51;70.58;101126.38;5037646;28;20178;-66
2022/08/01 07:38:49;;;;;;;9.70;7.67;;;;;;;20.73;69.97;101124.09;5037500;28;20174;-66
2022/08/01 07:41:15;;;;;;;10.33;7.43;;;;;;;21.10;68.62;101125.72;5045728;28;20173;-66
2022/08/01 07:43:41;;;;;;;12.57;6.93;;;;;;;21.47;67.32;101127.31;5057139;28;20312;-65
2022/08/01 07:46:06;;;;;;;9.47;6.97;;;;;;;21.25;68.20;101132.38;5057480;28;20759;-65
2022/08/01 07:48:33;;;;;;;10.97;6.83;;;;;;;21.34;67.97;101132.09;5057528;28;20228;-66
2022/08/01 07:50:58;;;;;;;15.40;6.57;;;;;;;21.15;68.78;101137.06;5059549;28;20177;-67
2022/08/01 07:53:23;;;;;;;13.33;7.77;;;;;;;21.09;69.25;101136.38;5060720;28;20476;-68
2022/08/01 07:55:49;;;;;;;13.23;7.80;;;;;;;21.34;68.49;101144.50;5061119;28;20179;-66
2022/08/01 07:58:15;;;;;;;9.33;6.33;;;;;;;20.75;69.98;101151.41;5060914;28;20169;-66
2022/08/01 08:00:41;;;;;;;9.10;6.20;;;;;;;20.73;68.83;101155.00;5058708;28;20280;-67
2022/08/01 08:03:06;;;;;;;9.60;5.50;;;;;;;21.47;66.50;101156.50;5041125;28;20817;-65
2022/08/01 08:05:34;;;;;;;8.80;4.90;;;;;;;21.91;64.83;101157.88;5040663;28;20228;-65
2022/08/01 08:08:10;;;;;;;7.83;5.10;;;;;;;21.97;64.76;101158.53;5040608;28;20178;-64
2022/08/01 08:10:35;;;;;;;9.97;5.00;;;;;;;22.04;64.42;101161.88;5041705;28;20475;-64
2022/08/01 08:13:03;;;;;;;11.80;4.33;;;;;;;22.14;62.28;101163.34;5040662;28;20791;-65
2022/08/01 08:15:29;;;;;;;5.23;3.70;;;;;;;21.62;61.90;101168.47;5040621;28;20177;-65
2022/08/01 08:17:54;;;;;;;12.03;3.80;;;;;;;21.59;60.68;101167.69;5040654;28;20424;-65
2022/08/01 08:20:24;;;;;;;6.87;3.50;;;;;;;21.55;57.98;101174.00;5041053;28;20194;-67
2022/08/01 08:22:50;;;;;;;6.97;3.30;;;;;;;22.13;56.67;101172.19;5041910;28;20186;-65
2022/08/01 08:25:16;;;;;;;8.63;3.77;;;;;;;22.99;53.20;101172.94;5040420;28;20413;-64
2022/08/01 08:27:41;;;;;;;7.83;3.80;;;;;;;23.81;50.32;101177.94;5040242;28;20681;-66
2022/08/01 08:30:07;;;;;;;5.67;3.43;;;;;;;24.70;48.42;101173.50;5040935;28;20224;-66
2022/08/01 08:32:33;;;;;;;6.83;3.57;;;;;;;26.33;44.46;101181.22;5041355;28;20213;-65
2022/08/01 08:34:58;;;;;;;8.60;3.60;;;;;;;27.31;42.49;101165.53;5040774;28;20437;-66
2022/08/01 08:37:24;;;;;;;11.87;3.80;;;;;;;27.89;41.54;101178.41;5040955;28;20550;-67
2022/08/01 08:39:49;;;;;;;6.63;3.73;;;;;;;28.06;41.46;101173.94;5040255;28;20174;-67
2022/08/01 08:42:14;;;;;;;6.30;3.57;;;;;;;28.21;40.44;101172.19;5041435;28;20201;-67
2022/08/01 08:44:40;;;;;;;6.93;3.77;;;;;;;28.36;39.53;101173.97;5040179;28;20313;-66
2022/08/01 08:47:07;;;;;;;4.90;3.40;;;;;;;29.06;38.98;101170.75;5040052;28;20447;-65
2022/08/01 08:49:33;;;;;;;6.00;3.37;;;;;;;28.46;39.50;101178.81;5040127;28;20451;-66
2022/08/01 08:52:00;;;;;;;5.17;3.67;;;;;;;29.04;39.21;101179.84;5047825;28;20429;-66
2022/08/01 08:54:26;;;;;;;9.63;4.17;;;;;;;30.37;36.17;101179.47;5042631;28;20476;-66
2022/08/01 08:56:53;;;;;;;7.80;3.53;;;;;;;28.87;37.29;101183.53;5039932;28;20417;-66
2022/08/01 08:59:18;;;;;;;8.50;3.57;;;;;;;28.48;37.22;101188.50;5039337;28;20417;-66
2022/08/01 09:01:44;;;;;;;6.27;3.40;;;;;;;28.56;36.88;101190.69;5038374;28;20478;-66
2022/08/01 09:04:10;;;;;;;4.87;3.17;;;;;;;28.52;36.85;101192.72;5039410;28;20567;-66
2022/08/01 09:06:36;;;;;;;6.00;3.37;;;;;;;29.09;34.92;101195.66;5041076;28;20178;-66
2022/08/01 09:09:02;;;;;;;5.30;3.20;;;;;;;28.23;36.92;101206.00;5059299;28;20451;-66
2022/08/01 09:11:27;;;;;;;4.40;2.90;;;;;;;28.99;35.98;101203.41;5058101;28;20294;-66
2022/08/01 09:14:01;;;;;;;5.40;3.60;;;;;;;28.21;36.99;101209.72;5059824;28;20240;-67
2022/08/01 09:16:27;;;;;;;5.87;3.77;;;;;;;29.28;35.66;101211.53;5059626;28;20195;-68
2022/08/01 09:18:52;;;;;;;5.80;4.27;;;;;;;30.24;34.31;101199.13;5059510;28;20420;-66
2022/08/01 09:21:21;;;;;;;24.63;5.60;;;;;;;29.98;34.81;101202.66;5059847;28;20176;-65
2022/08/01 09:23:49;;;;;;;9.73;3.37;;;;;;;29.37;36.63;101214.50;5059163;28;20216;-67
2022/08/01 09:26:16;;;;;;;7.27;3.80;;;;;;;29.87;35.74;101219.47;5057485;28;20456;-67
2022/08/01 09:28:43;;;;;;;11.03;3.73;;;;;;;29.76;36.31;101203.16;5059243;28;20804;-67
2022/08/01 09:31:11;;;;;;;7.53;3.77;;;;;;;28.02;39.69;101217.94;5039439;28;20429;-66
2022/08/01 09:33:52;;;;;;;8.37;4.10;;;;;;;27.39;41.75;101227.59;5039095;28;20431;-67
2022/08/01 09:36:18;;;;;;;7.80;4.20;;;;;;;29.27;37.60;101212.47;5039233;28;20436;-67
2022/08/01 09:38:43;;;;;;;6.30;3.50;;;;;;;28.30;40.01;101224.41;5039032;28;20413;-66
2022/08/01 09:41:11;;;;;;;5.77;3.87;;;;;;;28.16;40.31;101234.13;5039399;28;20512;-66
2022/08/01 09:43:36;;;;;;;5.27;3.87;;;;;;;29.68;38.10;101225.16;5039791;28;20300;-66
2022/08/01 09:46:12;;;;;;;6.13;3.70;;;;;;;29.71;38.18;101236.56;5038940;28;20527;-66
2022/08/01 09:48:41;;;;;;;5.93;3.87;;;;;;;30.10;37.81;101226.06;5039445;28;20170;-66
2022/08/01 09:51:07;;;;;;;9.47;3.80;;;;;;;28.97;39.43;101227.66;5039110;28;20421;-67
2022/08/01 09:53:49;;;;;;;8.30;4.13;;;;;;;28.97;38.88;101229.47;5050290;28;20504;-67
2022/08/01 09:56:14;;;;;;;7.00;4.13;;;;;;;28.80;39.84;101234.03;5058409;28;20664;-66
2022/08/01 09:58:56;;;;;;;6.07;4.00;;;;;;;29.20;39.88;101236.13;5058444;28;20466;-67
2022/08/01 10:01:22;;;;;;;8.77;3.57;;;;;;;29.21;39.02;101236.06;5053865;28;20546;-66
2022/08/01 10:04:05;;;;;;;7.00;3.90;;;;;;;29.08;39.40;101235.06;5058392;28;20520;-68
2022/08/01 10:06:30;;;;;;;9.73;4.50;;;;;;;29.27;38.41;101245.56;5056639;28;20446;-66
2022/08/01 10:08:56;;;;;;;5.30;3.77;;;;;;;29.28;38.27;101233.88;5050356;28;20443;-66
2022/08/01 10:11:22;;;;;;;7.80;4.50;;;;;;;30.40;37.66;101233.06;5038636;28;20174;-67
2022/08/01 10:13:48;;;;;;;7.20;3.70;;;;;;;29.38;38.10;101242.22;5055054;28;20181;-68
2022/08/01 10:16:14;;;;;;;7.57;3.80;;;;;;;30.32;37.00;101238.09;5063398;28;20224;-67
2022/08/01 10:18:40;;;;;;;7.83;4.13;;;;;;;29.43;37.08;101244.63;5058671;28;20448;-67
2022/08/01 10:21:05;;;;;;;5.13;3.50;;;;;;;28.70;38.50;101257.88;5068108;28;20440;-68
2022/08/01 10:23:34;;;;;;;8.80;4.40;;;;;;;27.79;40.16;101260.22;5057086;28;20478;-67
2022/08/01 10:26:00;;;;;;;8.10;4.17;;;;;;;29.29;37.66;101253.53;5047980;28;20253;-67
2022/08/01 10:28:26;;;;;;;8.37;3.83;;;;;;;30.19;37.16;101248.81;5040708;28;20460;-68
2022/08/01 10:30:52;;;;;;;4.17;3.57;;;;;;;29.56;37.37;101251.81;5042221;28;20182;-68
2022/08/01 10:33:17;;;;;;;5.77;3.77;;;;;;;28.59;38.17;101254.03;5044881;28;20824;-68
2022/08/01 10:35:45;;;;;;;4.20;3.30;;;;;;;29.24;37.38;101249.28;5057531;28;20562;-67
2022/08/01 10:38:10;;;;;;;6.30;3.70;;;;;;;28.81;36.75;101259.91;5054740;28;20184;-68
2022/08/01 10:40:37;;;;;;;8.50;3.20;;;;;;;29.07;36.94;101265.53;5039518;28;20429;-67
2022/08/01 10:43:02;;;;;;;5.73;3.30;;;;;;;28.89;36.15;101263.00;5037872;28;20209;-67
2022/08/01 10:45:28;;;;;;;5.53;3.27;;;;;;;28.97;36.05;101264.34;5045258;28;20436;-67
2022/08/01 10:48:07;;;;;;;5.90;3.43;;;;;;;28.41;36.70;101264.88;5050285;28;20184;-69
2022/08/01 10:50:46;;;;;;;7.10;3.47;;;;;;;28.74;36.40;101258.56;5040723;28;20186;-68
2022/08/01 10:53:18;;;;;;;9.73;3.20;;;;;;;29.38;35.41;101258.34;5045780;28;20512;-68
2022/08/01 10:56:00;;;;;;;4.50;3.53;;;;;;;28.37;36.39;101264.22;5044903;28;20833;-68
2022/08/01 10:58:28;;;;;;;8.23;3.53;;;;;;;29.06;35.35;101264.69;5042233;28;20516;-69
2022/08/01 11:01:15;;;;;;;7.33;3.47;;;;;;;28.45;36.57;101269.13;5053297;28;20431;-67
2022/08/01 11:04:12;;;;;;;4.37;2.97;;;;;;;27.65;36.77;101268.19;5057649;28;20502;-69
2022/08/01 11:06:42;;;;;;;6.53;3.20;;;;;;;29.17;33.98;101261.38;5053200;28;20451;-67
2022/08/01 11:09:11;;;;;;;4.60;2.90;;;;;;;28.39;36.05;101264.13;5038878;28;20421;-67
2022/08/01 11:11:57;;;;;;;4.60;3.27;;;;;;;28.72;35.74;101271.19;5048774;28;20430;-69
2022/08/01 11:14:22;;;;;;;5.63;3.57;;;;;;;28.77;34.84;101269.09;5057181;28;20693;-68
2022/08/01 11:16:47;;;;;;;7.73;3.50;;;;;;;28.16;35.61;101268.09;5057216;28;20427;-69
2022/08/01 11:19:13;;;;;;;4.03;2.93;;;;;;;28.04;35.65;101277.69;5057583;28;20264;-66